sensor_id;sensor_type;location;lat;lon;timestamp;P1;durP1;ratioP1;P2;durP2;ratioP2
30723;SDS011;17473;52.286;20.930;2023-04-25T00:02:14;15.52;;;10.75;;
30723;SDS011;17473;52.286;20.930;2023-04-25T00:04:41;13.90;;;11.13;;
30723;SDS011;17473;52.286;20.930;2023-04-25T00:07:09;14.55;;;11.02;;
30723;SDS011;17473;52.286;20.930;2023-04-25T00:09:36;15.73;;;10.98;;
30723;SDS011;17473;52.286;20.930;2023-04-25T00:12:03;18.15;;;12.05;;
30723;SDS011;17473;52.286;20.930;2023-04-25T00:14:31;16.05;;;11.93;;
30723;SDS011;17473;52.286;20.930;2023-04-25T00:17:00;22.05;;;12.75;;
30723;SDS011;17473;52.286;20.930;2023-04-25T00:19:28;18.38;;;11.68;;
30723;SDS011;17473;52.286;20.930;2023-04-25T00:21:55;17.27;;;11.93;;
30723;SDS011;17473;52.286;20.930;2023-04-25T00:24:22;17.02;;;11.65;;
30723;SDS011;17473;52.286;20.930;2023-04-25T00:26:49;17.65;;;12.65;;
30723;SDS011;17473;52.286;20.930;2023-04-25T00:29:17;20.13;;;12.80;;
30723;SDS011;17473;52.286;20.930;2023-04-25T00:31:44;16.85;;;12.75;;
30723;SDS011;17473;52.286;20.930;2023-04-25T00:34:11;18.90;;;12.35;;
30723;SDS011;17473;52.286;20.930;2023-04-25T00:36:38;17.05;;;12.73;;
30723;SDS011;17473;52.286;20.930;2023-04-25T00:39:05;17.35;;;13.18;;
30723;SDS011;17473;52.286;20.930;2023-04-25T00:41:32;15.90;;;12.43;;
30723;SDS011;17473;52.286;20.930;2023-04-25T00:44:00;18.35;;;12.40;;
30723;SDS011;17473;52.286;20.930;2023-04-25T00:46:28;17.08;;;12.27;;
30723;SDS011;17473;52.286;20.930;2023-04-25T00:48:56;19.35;;;13.02;;
30723;SDS011;17473;52.286;20.930;2023-04-25T00:51:23;19.00;;;12.52;;
30723;SDS011;17473;52.286;20.930;2023-04-25T00:53:53;15.07;;;13.00;;
30723;SDS011;17473;52.286;20.930;2023-04-25T00:56:20;23.35;;;13.40;;
30723;SDS011;17473;52.286;20.930;2023-04-25T00:58:47;17.42;;;13.18;;
30723;SDS011;17473;52.286;20.930;2023-04-25T01:01:15;17.48;;;13.07;;
30723;SDS011;17473;52.286;20.930;2023-04-25T01:03:43;19.83;;;14.23;;
30723;SDS011;17473;52.286;20.930;2023-04-25T01:06:13;17.95;;;12.57;;
30723;SDS011;17473;52.286;20.930;2023-04-25T01:08:40;17.67;;;13.07;;
30723;SDS011;17473;52.286;20.930;2023-04-25T01:11:07;21.00;;;14.55;;
30723;SDS011;17473;52.286;20.930;2023-04-25T01:13:35;19.70;;;14.32;;
30723;SDS011;17473;52.286;20.930;2023-04-25T01:16:02;20.00;;;14.27;;
30723;SDS011;17473;52.286;20.930;2023-04-25T01:18:29;19.48;;;14.63;;
30723;SDS011;17473;52.286;20.930;2023-04-25T01:21:02;18.40;;;13.68;;
30723;SDS011;17473;52.286;20.930;2023-04-25T01:23:40;18.92;;;14.60;;
30723;SDS011;17473;52.286;20.930;2023-04-25T01:26:08;18.20;;;12.98;;
30723;SDS011;17473;52.286;20.930;2023-04-25T01:28:38;22.98;;;13.65;;
30723;SDS011;17473;52.286;20.930;2023-04-25T01:31:09;17.50;;;13.48;;
30723;SDS011;17473;52.286;20.930;2023-04-25T01:33:38;17.85;;;13.93;;
30723;SDS011;17473;52.286;20.930;2023-04-25T01:36:05;17.70;;;13.77;;
30723;SDS011;17473;52.286;20.930;2023-04-25T01:38:32;17.10;;;12.90;;
30723;SDS011;17473;52.286;20.930;2023-04-25T01:41:00;16.67;;;13.30;;
30723;SDS011;17473;52.286;20.930;2023-04-25T01:43:27;15.18;;;12.60;;
30723;SDS011;17473;52.286;20.930;2023-04-25T01:45:54;16.05;;;12.15;;
30723;SDS011;17473;52.286;20.930;2023-04-25T01:48:23;18.58;;;12.93;;
30723;SDS011;17473;52.286;20.930;2023-04-25T01:50:50;22.75;;;13.07;;
30723;SDS011;17473;52.286;20.930;2023-04-25T01:53:17;14.30;;;12.60;;
30723;SDS011;17473;52.286;20.930;2023-04-25T01:55:44;23.10;;;12.38;;
30723;SDS011;17473;52.286;20.930;2023-04-25T01:58:11;20.77;;;12.07;;
30723;SDS011;17473;52.286;20.930;2023-04-25T02:00:39;17.80;;;11.60;;
30723;SDS011;17473;52.286;20.930;2023-04-25T02:03:07;16.45;;;11.88;;
30723;SDS011;17473;52.286;20.930;2023-04-25T02:05:35;14.25;;;11.13;;
30723;SDS011;17473;52.286;20.930;2023-04-25T02:08:04;13.57;;;10.80;;
30723;SDS011;17473;52.286;20.930;2023-04-25T02:10:33;20.15;;;12.05;;
30723;SDS011;17473;52.286;20.930;2023-04-25T02:13:01;16.55;;;10.80;;
30723;SDS011;17473;52.286;20.930;2023-04-25T02:15:29;16.33;;;11.50;;
30723;SDS011;17473;52.286;20.930;2023-04-25T02:17:57;13.77;;;11.07;;
30723;SDS011;17473;52.286;20.930;2023-04-25T02:20:27;14.40;;;10.98;;
30723;SDS011;17473;52.286;20.930;2023-04-25T02:22:56;17.15;;;10.75;;
30723;SDS011;17473;52.286;20.930;2023-04-25T02:25:23;17.13;;;10.82;;
30723;SDS011;17473;52.286;20.930;2023-04-25T02:27:50;12.68;;;9.95;;
30723;SDS011;17473;52.286;20.930;2023-04-25T02:30:17;15.93;;;10.95;;
30723;SDS011;17473;52.286;20.930;2023-04-25T02:32:45;13.82;;;10.15;;
30723;SDS011;17473;52.286;20.930;2023-04-25T02:35:12;14.48;;;10.30;;
30723;SDS011;17473;52.286;20.930;2023-04-25T02:37:39;12.82;;;9.73;;
30723;SDS011;17473;52.286;20.930;2023-04-25T02:40:08;11.70;;;9.13;;
30723;SDS011;17473;52.286;20.930;2023-04-25T02:42:36;12.55;;;9.85;;
30723;SDS011;17473;52.286;20.930;2023-04-25T02:45:03;15.05;;;9.68;;
30723;SDS011;17473;52.286;20.930;2023-04-25T02:47:31;15.35;;;10.05;;
30723;SDS011;17473;52.286;20.930;2023-04-25T02:49:58;14.20;;;10.38;;
30723;SDS011;17473;52.286;20.930;2023-04-25T02:52:25;14.82;;;9.13;;
30723;SDS011;17473;52.286;20.930;2023-04-25T02:54:52;11.38;;;8.82;;
30723;SDS011;17473;52.286;20.930;2023-04-25T02:57:19;14.95;;;9.65;;
30723;SDS011;17473;52.286;20.930;2023-04-25T02:59:46;20.45;;;10.10;;
30723;SDS011;17473;52.286;20.930;2023-04-25T03:02:13;12.02;;;9.07;;
30723;SDS011;17473;52.286;20.930;2023-04-25T03:04:41;11.75;;;8.48;;
30723;SDS011;17473;52.286;20.930;2023-04-25T03:07:08;13.57;;;9.68;;
30723;SDS011;17473;52.286;20.930;2023-04-25T03:09:36;14.50;;;9.32;;
30723;SDS011;17473;52.286;20.930;2023-04-25T03:12:03;12.65;;;9.48;;
30723;SDS011;17473;52.286;20.930;2023-04-25T03:14:31;14.85;;;9.25;;
30723;SDS011;17473;52.286;20.930;2023-04-25T03:16:58;14.88;;;10.15;;
30723;SDS011;17473;52.286;20.930;2023-04-25T03:19:25;14.45;;;8.90;;
30723;SDS011;17473;52.286;20.930;2023-04-25T03:21:52;16.67;;;9.65;;
30723;SDS011;17473;52.286;20.930;2023-04-25T03:24:19;12.73;;;9.07;;
30723;SDS011;17473;52.286;20.930;2023-04-25T03:26:46;14.73;;;9.38;;
30723;SDS011;17473;52.286;20.930;2023-04-25T03:29:13;13.70;;;9.15;;
30723;SDS011;17473;52.286;20.930;2023-04-25T03:31:40;11.10;;;8.18;;
30723;SDS011;17473;52.286;20.930;2023-04-25T03:34:08;11.82;;;8.00;;
30723;SDS011;17473;52.286;20.930;2023-04-25T03:36:35;11.70;;;8.50;;
30723;SDS011;17473;52.286;20.930;2023-04-25T03:39:02;11.90;;;8.80;;
30723;SDS011;17473;52.286;20.930;2023-04-25T03:41:29;11.50;;;10.00;;
30723;SDS011;17473;52.286;20.930;2023-04-25T03:43:56;14.27;;;8.73;;
30723;SDS011;17473;52.286;20.930;2023-04-25T03:46:23;11.13;;;8.55;;
30723;SDS011;17473;52.286;20.930;2023-04-25T03:48:50;10.27;;;8.20;;
30723;SDS011;17473;52.286;20.930;2023-04-25T03:51:17;12.35;;;9.18;;
30723;SDS011;17473;52.286;20.930;2023-04-25T03:53:44;14.90;;;8.30;;
30723;SDS011;17473;52.286;20.930;2023-04-25T03:56:11;13.25;;;7.95;;
30723;SDS011;17473;52.286;20.930;2023-04-25T03:58:38;14.20;;;8.68;;
30723;SDS011;17473;52.286;20.930;2023-04-25T04:01:05;11.90;;;8.50;;
30723;SDS011;17473;52.286;20.930;2023-04-25T04:03:34;11.00;;;8.35;;
30723;SDS011;17473;52.286;20.930;2023-04-25T04:06:03;10.32;;;7.50;;
30723;SDS011;17473;52.286;20.930;2023-04-25T04:08:32;11.88;;;8.02;;
30723;SDS011;17473;52.286;20.930;2023-04-25T04:10:59;10.90;;;7.93;;
30723;SDS011;17473;52.286;20.930;2023-04-25T04:13:26;12.25;;;6.93;;
30723;SDS011;17473;52.286;20.930;2023-04-25T04:15:54;15.57;;;8.77;;
30723;SDS011;17473;52.286;20.930;2023-04-25T04:18:22;20.40;;;7.82;;
30723;SDS011;17473;52.286;20.930;2023-04-25T04:20:49;10.93;;;7.63;;
30723;SDS011;17473;52.286;20.930;2023-04-25T04:23:17;13.57;;;7.43;;
30723;SDS011;17473;52.286;20.930;2023-04-25T04:25:44;8.82;;;7.70;;
30723;SDS011;17473;52.286;20.930;2023-04-25T04:28:11;10.52;;;7.95;;
30723;SDS011;17473;52.286;20.930;2023-04-25T04:30:39;9.48;;;8.02;;
30723;SDS011;17473;52.286;20.930;2023-04-25T04:33:07;12.85;;;8.20;;
30723;SDS011;17473;52.286;20.930;2023-04-25T04:35:35;14.57;;;8.57;;
30723;SDS011;17473;52.286;20.930;2023-04-25T04:38:02;15.90;;;8.55;;
30723;SDS011;17473;52.286;20.930;2023-04-25T04:40:29;12.65;;;8.00;;
30723;SDS011;17473;52.286;20.930;2023-04-25T04:42:59;9.95;;;8.00;;
30723;SDS011;17473;52.286;20.930;2023-04-25T04:45:26;10.52;;;7.28;;
30723;SDS011;17473;52.286;20.930;2023-04-25T04:47:53;9.65;;;7.53;;
30723;SDS011;17473;52.286;20.930;2023-04-25T04:50:21;10.30;;;7.22;;
30723;SDS011;17473;52.286;20.930;2023-04-25T04:52:48;10.85;;;7.25;;
30723;SDS011;17473;52.286;20.930;2023-04-25T04:55:16;9.30;;;7.50;;
30723;SDS011;17473;52.286;20.930;2023-04-25T04:57:43;11.35;;;7.50;;
30723;SDS011;17473;52.286;20.930;2023-04-25T05:00:10;9.80;;;7.55;;
30723;SDS011;17473;52.286;20.930;2023-04-25T05:02:38;10.13;;;7.30;;
30723;SDS011;17473;52.286;20.930;2023-04-25T05:05:06;9.52;;;7.03;;
30723;SDS011;17473;52.286;20.930;2023-04-25T05:07:34;9.45;;;7.95;;
30723;SDS011;17473;52.286;20.930;2023-04-25T05:10:01;12.55;;;7.53;;
30723;SDS011;17473;52.286;20.930;2023-04-25T05:12:29;8.85;;;7.25;;
30723;SDS011;17473;52.286;20.930;2023-04-25T05:14:56;9.05;;;7.38;;
30723;SDS011;17473;52.286;20.930;2023-04-25T05:17:23;7.40;;;6.45;;
30723;SDS011;17473;52.286;20.930;2023-04-25T05:19:50;9.02;;;6.70;;
30723;SDS011;17473;52.286;20.930;2023-04-25T05:22:17;10.43;;;6.32;;
30723;SDS011;17473;52.286;20.930;2023-04-25T05:24:44;9.90;;;7.35;;
30723;SDS011;17473;52.286;20.930;2023-04-25T05:27:12;7.93;;;6.45;;
30723;SDS011;17473;52.286;20.930;2023-04-25T05:29:39;8.75;;;7.05;;
30723;SDS011;17473;52.286;20.930;2023-04-25T05:32:06;8.52;;;7.10;;
30723;SDS011;17473;52.286;20.930;2023-04-25T05:34:33;7.85;;;7.03;;
30723;SDS011;17473;52.286;20.930;2023-04-25T05:37:01;12.73;;;7.68;;
30723;SDS011;17473;52.286;20.930;2023-04-25T05:39:28;10.55;;;7.20;;
30723;SDS011;17473;52.286;20.930;2023-04-25T05:41:55;10.15;;;7.15;;
30723;SDS011;17473;52.286;20.930;2023-04-25T05:44:22;9.27;;;7.15;;
30723;SDS011;17473;52.286;20.930;2023-04-25T05:46:49;7.75;;;6.95;;
30723;SDS011;17473;52.286;20.930;2023-04-25T05:49:16;7.90;;;6.50;;
30723;SDS011;17473;52.286;20.930;2023-04-25T05:51:44;11.45;;;7.45;;
30723;SDS011;17473;52.286;20.930;2023-04-25T05:54:11;9.05;;;7.22;;
30723;SDS011;17473;52.286;20.930;2023-04-25T05:56:39;9.85;;;6.85;;
30723;SDS011;17473;52.286;20.930;2023-04-25T05:59:06;8.15;;;7.20;;
30723;SDS011;17473;52.286;20.930;2023-04-25T06:01:33;8.25;;;7.30;;
30723;SDS011;17473;52.286;20.930;2023-04-25T06:04:00;7.70;;;6.60;;
30723;SDS011;17473;52.286;20.930;2023-04-25T06:06:28;9.02;;;6.68;;
30723;SDS011;17473;52.286;20.930;2023-04-25T06:08:56;9.52;;;7.22;;
30723;SDS011;17473;52.286;20.930;2023-04-25T06:11:23;9.93;;;7.95;;
30723;SDS011;17473;52.286;20.930;2023-04-25T06:13:50;14.10;;;7.32;;
30723;SDS011;17473;52.286;20.930;2023-04-25T06:16:17;9.10;;;6.80;;
30723;SDS011;17473;52.286;20.930;2023-04-25T06:18:45;10.05;;;7.35;;
30723;SDS011;17473;52.286;20.930;2023-04-25T06:21:12;9.25;;;8.27;;
30723;SDS011;17473;52.286;20.930;2023-04-25T06:23:39;10.35;;;7.88;;
30723;SDS011;17473;52.286;20.930;2023-04-25T06:26:06;10.07;;;7.95;;
30723;SDS011;17473;52.286;20.930;2023-04-25T06:28:33;10.80;;;8.80;;
30723;SDS011;17473;52.286;20.930;2023-04-25T06:31:00;9.60;;;7.95;;
30723;SDS011;17473;52.286;20.930;2023-04-25T06:33:27;8.40;;;7.45;;
30723;SDS011;17473;52.286;20.930;2023-04-25T06:35:54;11.02;;;8.75;;
30723;SDS011;17473;52.286;20.930;2023-04-25T06:38:21;11.68;;;8.18;;
30723;SDS011;17473;52.286;20.930;2023-04-25T06:40:48;10.10;;;8.13;;
30723;SDS011;17473;52.286;20.930;2023-04-25T06:43:15;11.32;;;8.60;;
30723;SDS011;17473;52.286;20.930;2023-04-25T06:45:42;9.27;;;7.95;;
30723;SDS011;17473;52.286;20.930;2023-04-25T06:48:12;9.32;;;8.27;;
30723;SDS011;17473;52.286;20.930;2023-04-25T06:50:39;9.60;;;8.60;;
30723;SDS011;17473;52.286;20.930;2023-04-25T06:53:06;11.43;;;8.70;;
30723;SDS011;17473;52.286;20.930;2023-04-25T06:55:35;9.55;;;7.63;;
30723;SDS011;17473;52.286;20.930;2023-04-25T06:58:02;10.18;;;7.95;;
30723;SDS011;17473;52.286;20.930;2023-04-25T07:00:29;10.38;;;7.13;;
30723;SDS011;17473;52.286;20.930;2023-04-25T07:02:57;8.48;;;7.35;;
30723;SDS011;17473;52.286;20.930;2023-04-25T07:05:24;11.02;;;6.97;;
30723;SDS011;17473;52.286;20.930;2023-04-25T07:07:51;14.05;;;6.65;;
30723;SDS011;17473;52.286;20.930;2023-04-25T07:10:19;7.10;;;6.40;;
30723;SDS011;17473;52.286;20.930;2023-04-25T07:12:47;9.23;;;6.45;;
30723;SDS011;17473;52.286;20.930;2023-04-25T07:15:14;12.18;;;6.50;;
30723;SDS011;17473;52.286;20.930;2023-04-25T07:17:41;9.27;;;5.47;;
30723;SDS011;17473;52.286;20.930;2023-04-25T07:20:19;7.85;;;5.32;;
30723;SDS011;17473;52.286;20.930;2023-04-25T07:22:47;5.97;;;5.00;;
30723;SDS011;17473;52.286;20.930;2023-04-25T07:25:14;8.20;;;5.47;;
30723;SDS011;17473;52.286;20.930;2023-04-25T07:27:41;8.25;;;4.95;;
30723;SDS011;17473;52.286;20.930;2023-04-25T07:30:08;6.28;;;4.82;;
30723;SDS011;17473;52.286;20.930;2023-04-25T07:32:35;6.13;;;5.07;;
30723;SDS011;17473;52.286;20.930;2023-04-25T07:35:02;11.75;;;5.00;;
30723;SDS011;17473;52.286;20.930;2023-04-25T07:37:30;7.93;;;5.43;;
30723;SDS011;17473;52.286;20.930;2023-04-25T07:39:57;9.93;;;5.88;;
30723;SDS011;17473;52.286;20.930;2023-04-25T07:42:24;6.63;;;4.93;;
30723;SDS011;17473;52.286;20.930;2023-04-25T07:44:51;5.90;;;4.68;;
30723;SDS011;17473;52.286;20.930;2023-04-25T07:47:18;5.97;;;4.40;;
30723;SDS011;17473;52.286;20.930;2023-04-25T07:49:45;5.53;;;4.30;;
30723;SDS011;17473;52.286;20.930;2023-04-25T07:52:12;4.97;;;4.47;;
30723;SDS011;17473;52.286;20.930;2023-04-25T07:54:40;10.13;;;4.65;;
30723;SDS011;17473;52.286;20.930;2023-04-25T07:57:07;7.18;;;4.78;;
30723;SDS011;17473;52.286;20.930;2023-04-25T07:59:34;8.90;;;4.97;;
30723;SDS011;17473;52.286;20.930;2023-04-25T08:02:02;6.22;;;5.63;;
30723;SDS011;17473;52.286;20.930;2023-04-25T08:04:29;5.80;;;5.20;;
30723;SDS011;17473;52.286;20.930;2023-04-25T08:06:56;9.65;;;5.72;;
30723;SDS011;17473;52.286;20.930;2023-04-25T08:09:23;6.55;;;5.93;;
30723;SDS011;17473;52.286;20.930;2023-04-25T08:11:51;9.13;;;6.65;;
30723;SDS011;17473;52.286;20.930;2023-04-25T08:14:18;6.93;;;5.75;;
30723;SDS011;17473;52.286;20.930;2023-04-25T08:16:45;9.68;;;6.20;;
30723;SDS011;17473;52.286;20.930;2023-04-25T08:19:12;7.25;;;6.55;;
30723;SDS011;17473;52.286;20.930;2023-04-25T08:21:39;7.70;;;5.95;;
30723;SDS011;17473;52.286;20.930;2023-04-25T08:24:06;5.50;;;4.93;;
30723;SDS011;17473;52.286;20.930;2023-04-25T08:26:33;10.43;;;6.13;;
30723;SDS011;17473;52.286;20.930;2023-04-25T08:29:00;8.95;;;5.68;;
30723;SDS011;17473;52.286;20.930;2023-04-25T08:31:27;7.75;;;6.10;;
30723;SDS011;17473;52.286;20.930;2023-04-25T08:33:54;8.82;;;5.80;;
30723;SDS011;17473;52.286;20.930;2023-04-25T08:36:21;9.00;;;6.18;;
30723;SDS011;17473;52.286;20.930;2023-04-25T08:39:04;8.57;;;5.90;;
30723;SDS011;17473;52.286;20.930;2023-04-25T08:41:31;8.32;;;7.03;;
30723;SDS011;17473;52.286;20.930;2023-04-25T08:44:00;8.18;;;5.40;;
30723;SDS011;17473;52.286;20.930;2023-04-25T08:46:29;7.05;;;6.03;;
30723;SDS011;17473;52.286;20.930;2023-04-25T08:49:00;7.55;;;5.82;;
30723;SDS011;17473;52.286;20.930;2023-04-25T08:51:30;8.45;;;6.68;;
30723;SDS011;17473;52.286;20.930;2023-04-25T08:54:08;6.00;;;5.40;;
30723;SDS011;17473;52.286;20.930;2023-04-25T08:56:57;7.10;;;5.45;;
30723;SDS011;17473;52.286;20.930;2023-04-25T08:59:31;6.63;;;5.57;;
30723;SDS011;17473;52.286;20.930;2023-04-25T09:01:59;6.32;;;5.72;;
30723;SDS011;17473;52.286;20.930;2023-04-25T09:04:27;5.55;;;5.05;;
30723;SDS011;17473;52.286;20.930;2023-04-25T09:06:58;5.07;;;4.65;;
30723;SDS011;17473;52.286;20.930;2023-04-25T09:09:25;5.80;;;5.22;;
30723;SDS011;17473;52.286;20.930;2023-04-25T09:11:52;5.10;;;4.60;;
30723;SDS011;17473;52.286;20.930;2023-04-25T09:14:22;7.40;;;5.18;;
30723;SDS011;17473;52.286;20.930;2023-04-25T09:19:25;5.72;;;4.63;;
30723;SDS011;17473;52.286;20.930;2023-04-25T09:22:05;6.10;;;5.47;;
30723;SDS011;17473;52.286;20.930;2023-04-25T09:24:43;10.55;;;5.40;;
30723;SDS011;17473;52.286;20.930;2023-04-25T09:27:19;7.28;;;5.90;;
30723;SDS011;17473;52.286;20.930;2023-04-25T09:29:58;11.73;;;5.97;;
30723;SDS011;17473;52.286;20.930;2023-04-25T09:32:28;8.77;;;5.90;;
30723;SDS011;17473;52.286;20.930;2023-04-25T09:34:56;6.35;;;5.68;;
30723;SDS011;17473;52.286;20.930;2023-04-25T09:37:24;9.05;;;5.90;;
30723;SDS011;17473;52.286;20.930;2023-04-25T09:39:58;8.48;;;6.82;;
30723;SDS011;17473;52.286;20.930;2023-04-25T09:42:29;7.20;;;5.68;;
30723;SDS011;17473;52.286;20.930;2023-04-25T09:44:58;7.43;;;6.18;;
30723;SDS011;17473;52.286;20.930;2023-04-25T09:47:28;7.15;;;5.97;;
30723;SDS011;17473;52.286;20.930;2023-04-25T09:49:55;9.30;;;5.75;;
30723;SDS011;17473;52.286;20.930;2023-04-25T09:52:23;8.02;;;6.70;;
30723;SDS011;17473;52.286;20.930;2023-04-25T09:54:51;9.98;;;7.57;;
30723;SDS011;17473;52.286;20.930;2023-04-25T09:57:20;8.40;;;6.15;;
30723;SDS011;17473;52.286;20.930;2023-04-25T09:59:50;8.23;;;7.32;;
30723;SDS011;17473;52.286;20.930;2023-04-25T10:02:22;9.05;;;7.90;;
30723;SDS011;17473;52.286;20.930;2023-04-25T10:04:55;8.57;;;7.78;;
30723;SDS011;17473;52.286;20.930;2023-04-25T10:07:23;11.25;;;7.82;;
30723;SDS011;17473;52.286;20.930;2023-04-25T10:10:03;9.30;;;7.82;;
30723;SDS011;17473;52.286;20.930;2023-04-25T10:12:32;8.07;;;7.28;;
30723;SDS011;17473;52.286;20.930;2023-04-25T10:15:00;9.20;;;8.30;;
30723;SDS011;17473;52.286;20.930;2023-04-25T10:17:29;8.85;;;7.97;;
30723;SDS011;17473;52.286;20.930;2023-04-25T10:19:57;9.18;;;8.25;;
30723;SDS011;17473;52.286;20.930;2023-04-25T10:22:32;13.18;;;9.20;;
30723;SDS011;17473;52.286;20.930;2023-04-25T10:25:03;13.82;;;8.95;;
30723;SDS011;17473;52.286;20.930;2023-04-25T10:27:32;12.32;;;9.75;;
30723;SDS011;17473;52.286;20.930;2023-04-25T10:30:01;11.88;;;9.52;;
30723;SDS011;17473;52.286;20.930;2023-04-25T10:32:38;10.82;;;9.70;;
30723;SDS011;17473;52.286;20.930;2023-04-25T10:35:26;11.88;;;9.63;;
30723;SDS011;17473;52.286;20.930;2023-04-25T10:37:58;16.75;;;9.68;;
30723;SDS011;17473;52.286;20.930;2023-04-25T10:40:35;14.20;;;9.70;;
30723;SDS011;17473;52.286;20.930;2023-04-25T10:46:01;10.57;;;9.48;;
30723;SDS011;17473;52.286;20.930;2023-04-25T10:48:29;11.60;;;9.98;;
30723;SDS011;17473;52.286;20.930;2023-04-25T10:54:21;11.60;;;9.25;;
30723;SDS011;17473;52.286;20.930;2023-04-25T10:56:51;9.65;;;8.68;;
30723;SDS011;17473;52.286;20.930;2023-04-25T10:59:19;11.75;;;9.55;;
30723;SDS011;17473;52.286;20.930;2023-04-25T11:01:51;10.82;;;9.27;;
30723;SDS011;17473;52.286;20.930;2023-04-25T11:09:34;10.10;;;9.10;;
30723;SDS011;17473;52.286;20.930;2023-04-25T11:12:02;15.00;;;9.18;;
30723;SDS011;17473;52.286;20.930;2023-04-25T11:14:29;10.18;;;9.20;;
30723;SDS011;17473;52.286;20.930;2023-04-25T11:16:57;9.73;;;8.30;;
30723;SDS011;17473;52.286;20.930;2023-04-25T11:19:26;9.05;;;7.32;;
30723;SDS011;17473;52.286;20.930;2023-04-25T11:21:55;12.35;;;7.38;;
30723;SDS011;17473;52.286;20.930;2023-04-25T11:24:27;9.73;;;6.90;;
30723;SDS011;17473;52.286;20.930;2023-04-25T11:27:01;7.47;;;6.38;;
30723;SDS011;17473;52.286;20.930;2023-04-25T11:29:30;7.35;;;6.53;;
30723;SDS011;17473;52.286;20.930;2023-04-25T11:31:59;6.25;;;5.15;;
30723;SDS011;17473;52.286;20.930;2023-04-25T11:34:28;12.23;;;5.60;;
30723;SDS011;17473;52.286;20.930;2023-04-25T11:36:57;5.85;;;5.30;;
30723;SDS011;17473;52.286;20.930;2023-04-25T11:39:26;6.15;;;5.40;;
30723;SDS011;17473;52.286;20.930;2023-04-25T11:41:54;6.47;;;5.22;;
30723;SDS011;17473;52.286;20.930;2023-04-25T11:44:21;5.93;;;5.32;;
30723;SDS011;17473;52.286;20.930;2023-04-25T11:46:49;7.43;;;6.20;;
30723;SDS011;17473;52.286;20.930;2023-04-25T11:49:16;8.63;;;6.25;;
30723;SDS011;17473;52.286;20.930;2023-04-25T11:51:47;10.63;;;6.05;;
30723;SDS011;17473;52.286;20.930;2023-04-25T11:54:15;6.13;;;4.93;;
30723;SDS011;17473;52.286;20.930;2023-04-25T11:56:43;6.50;;;5.68;;
30723;SDS011;17473;52.286;20.930;2023-04-25T11:59:11;6.53;;;5.45;;
30723;SDS011;17473;52.286;20.930;2023-04-25T12:01:47;8.15;;;6.80;;
30723;SDS011;17473;52.286;20.930;2023-04-25T12:04:16;8.88;;;6.00;;
30723;SDS011;17473;52.286;20.930;2023-04-25T12:06:50;5.65;;;4.82;;
30723;SDS011;17473;52.286;20.930;2023-04-25T12:09:21;8.20;;;5.22;;
30723;SDS011;17473;52.286;20.930;2023-04-25T12:11:59;5.35;;;4.05;;
30723;SDS011;17473;52.286;20.930;2023-04-25T12:14:30;5.20;;;4.43;;
30723;SDS011;17473;52.286;20.930;2023-04-25T12:17:00;7.95;;;4.07;;
30723;SDS011;17473;52.286;20.930;2023-04-25T12:19:33;6.45;;;4.47;;
30723;SDS011;17473;52.286;20.930;2023-04-25T12:22:03;5.93;;;4.40;;
30723;SDS011;17473;52.286;20.930;2023-04-25T12:24:47;6.63;;;3.88;;
30723;SDS011;17473;52.286;20.930;2023-04-25T12:27:15;5.07;;;3.58;;
30723;SDS011;17473;52.286;20.930;2023-04-25T12:29:51;4.80;;;4.07;;
30723;SDS011;17473;52.286;20.930;2023-04-25T12:32:23;4.80;;;3.67;;
30723;SDS011;17473;52.286;20.930;2023-04-25T12:34:51;5.93;;;3.78;;
30723;SDS011;17473;52.286;20.930;2023-04-25T12:37:18;5.80;;;3.83;;
30723;SDS011;17473;52.286;20.930;2023-04-25T12:39:45;4.15;;;3.72;;
30723;SDS011;17473;52.286;20.930;2023-04-25T12:42:12;4.78;;;3.75;;
30723;SDS011;17473;52.286;20.930;2023-04-25T12:44:39;4.55;;;3.53;;
30723;SDS011;17473;52.286;20.930;2023-04-25T12:47:07;5.10;;;4.10;;
30723;SDS011;17473;52.286;20.930;2023-04-25T12:49:35;4.10;;;3.75;;
30723;SDS011;17473;52.286;20.930;2023-04-25T12:52:02;7.85;;;3.72;;
30723;SDS011;17473;52.286;20.930;2023-04-25T12:54:29;9.02;;;4.00;;
30723;SDS011;17473;52.286;20.930;2023-04-25T12:56:56;9.48;;;4.47;;
30723;SDS011;17473;52.286;20.930;2023-04-25T12:59:23;10.95;;;4.80;;
30723;SDS011;17473;52.286;20.930;2023-04-25T13:01:50;10.38;;;5.10;;
30723;SDS011;17473;52.286;20.930;2023-04-25T13:04:17;8.43;;;4.30;;
30723;SDS011;17473;52.286;20.930;2023-04-25T13:06:47;6.30;;;4.20;;
30723;SDS011;17473;52.286;20.930;2023-04-25T13:09:14;4.13;;;3.63;;
30723;SDS011;17473;52.286;20.930;2023-04-25T13:11:41;4.80;;;3.60;;
30723;SDS011;17473;52.286;20.930;2023-04-25T13:14:08;5.75;;;3.45;;
30723;SDS011;17473;52.286;20.930;2023-04-25T13:16:35;4.32;;;3.28;;
30723;SDS011;17473;52.286;20.930;2023-04-25T13:19:03;5.20;;;3.58;;
30723;SDS011;17473;52.286;20.930;2023-04-25T13:21:30;4.80;;;3.17;;
30723;SDS011;17473;52.286;20.930;2023-04-25T13:23:58;6.88;;;2.97;;
30723;SDS011;17473;52.286;20.930;2023-04-25T13:26:26;3.88;;;3.00;;
30723;SDS011;17473;52.286;20.930;2023-04-25T13:28:53;5.38;;;3.40;;
30723;SDS011;17473;52.286;20.930;2023-04-25T13:31:20;3.97;;;3.08;;
30723;SDS011;17473;52.286;20.930;2023-04-25T13:33:47;3.25;;;2.67;;
30723;SDS011;17473;52.286;20.930;2023-04-25T13:36:14;4.18;;;3.30;;
30723;SDS011;17473;52.286;20.930;2023-04-25T13:38:41;4.80;;;3.28;;
30723;SDS011;17473;52.286;20.930;2023-04-25T13:41:10;4.90;;;3.10;;
30723;SDS011;17473;52.286;20.930;2023-04-25T13:43:41;5.32;;;2.63;;
30723;SDS011;17473;52.286;20.930;2023-04-25T13:46:08;4.65;;;3.05;;
30723;SDS011;17473;52.286;20.930;2023-04-25T13:48:55;6.13;;;3.92;;
30723;SDS011;17473;52.286;20.930;2023-04-25T13:51:37;5.15;;;3.42;;
30723;SDS011;17473;52.286;20.930;2023-04-25T13:54:04;4.57;;;3.78;;
30723;SDS011;17473;52.286;20.930;2023-04-25T13:56:31;9.13;;;3.00;;
30723;SDS011;17473;52.286;20.930;2023-04-25T13:58:58;3.17;;;2.63;;
30723;SDS011;17473;52.286;20.930;2023-04-25T14:01:25;3.90;;;2.53;;
30723;SDS011;17473;52.286;20.930;2023-04-25T14:03:52;3.08;;;2.67;;
30723;SDS011;17473;52.286;20.930;2023-04-25T14:06:20;3.42;;;3.13;;
30723;SDS011;17473;52.286;20.930;2023-04-25T14:08:52;3.90;;;2.95;;
30723;SDS011;17473;52.286;20.930;2023-04-25T14:11:20;5.13;;;3.35;;
30723;SDS011;17473;52.286;20.930;2023-04-25T14:13:47;3.65;;;3.13;;
30723;SDS011;17473;52.286;20.930;2023-04-25T14:16:16;5.50;;;3.00;;
30723;SDS011;17473;52.286;20.930;2023-04-25T14:18:43;6.90;;;3.72;;
30723;SDS011;17473;52.286;20.930;2023-04-25T14:21:10;10.43;;;3.72;;
30723;SDS011;17473;52.286;20.930;2023-04-25T14:23:37;4.68;;;3.63;;
30723;SDS011;17473;52.286;20.930;2023-04-25T14:26:04;4.00;;;3.17;;
30723;SDS011;17473;52.286;20.930;2023-04-25T14:28:32;3.33;;;2.90;;
30723;SDS011;17473;52.286;20.930;2023-04-25T14:30:59;4.18;;;3.13;;
30723;SDS011;17473;52.286;20.930;2023-04-25T14:33:26;5.50;;;4.50;;
30723;SDS011;17473;52.286;20.930;2023-04-25T14:35:53;5.75;;;4.03;;
30723;SDS011;17473;52.286;20.930;2023-04-25T14:38:21;4.75;;;3.30;;
30723;SDS011;17473;52.286;20.930;2023-04-25T14:40:49;3.88;;;3.13;;
30723;SDS011;17473;52.286;20.930;2023-04-25T14:43:17;4.90;;;3.72;;
30723;SDS011;17473;52.286;20.930;2023-04-25T14:45:44;4.97;;;3.63;;
30723;SDS011;17473;52.286;20.930;2023-04-25T14:48:11;3.70;;;3.30;;